sensor_id;sensor_type;location;lat;lon;timestamp;P1;durP1;ratioP1;P2;durP2;ratioP2
13816;SDS011;6979;52.116;5.286;2024-01-10T00:02:25;2.50;;;2.30;;
13816;SDS011;6979;52.116;5.286;2024-01-10T00:04:52;2.20;;;2.00;;
13816;SDS011;6979;52.116;5.286;2024-01-10T00:07:19;2.47;;;2.27;;
13816;SDS011;6979;52.116;5.286;2024-01-10T00:09:46;2.67;;;2.20;;
13816;SDS011;6979;52.116;5.286;2024-01-10T00:12:13;2.47;;;2.27;;
13816;SDS011;6979;52.116;5.286;2024-01-10T00:14:41;3.13;;;2.90;;
13816;SDS011;6979;52.116;5.286;2024-01-10T00:17:10;3.97;;;2.67;;
13816;SDS011;6979;52.116;5.286;2024-01-10T00:19:37;2.50;;;2.30;;
13816;SDS011;6979;52.116;5.286;2024-01-10T00:22:04;3.63;;;2.77;;
13816;SDS011;6979;52.116;5.286;2024-01-10T00:24:30;2.37;;;2.17;;
13816;SDS011;6979;52.116;5.286;2024-01-10T00:27:00;2.60;;;2.40;;
13816;SDS011;6979;52.116;5.286;2024-01-10T00:29:27;2.60;;;2.20;;
13816;SDS011;6979;52.116;5.286;2024-01-10T00:31:55;2.43;;;2.30;;
13816;SDS011;6979;52.116;5.286;2024-01-10T00:34:25;3.03;;;2.73;;
13816;SDS011;6979;52.116;5.286;2024-01-10T00:36:52;3.00;;;2.60;;
13816;SDS011;6979;52.116;5.286;2024-01-10T00:39:20;3.23;;;2.80;;
13816;SDS011;6979;52.116;5.286;2024-01-10T00:41:47;4.20;;;2.90;;
13816;SDS011;6979;52.116;5.286;2024-01-10T00:44:14;2.53;;;2.33;;
13816;SDS011;6979;52.116;5.286;2024-01-10T00:46:43;3.13;;;2.83;;
13816;SDS011;6979;52.116;5.286;2024-01-10T00:49:11;2.80;;;2.53;;
13816;SDS011;6979;52.116;5.286;2024-01-10T00:51:38;3.67;;;2.53;;
13816;SDS011;6979;52.116;5.286;2024-01-10T00:54:05;2.53;;;2.33;;
13816;SDS011;6979;52.116;5.286;2024-01-10T00:56:32;3.37;;;2.87;;
13816;SDS011;6979;52.116;5.286;2024-01-10T00:58:59;3.03;;;2.70;;
13816;SDS011;6979;52.116;5.286;2024-01-10T01:01:26;3.20;;;2.87;;
13816;SDS011;6979;52.116;5.286;2024-01-10T01:03:53;3.50;;;3.20;;
13816;SDS011;6979;52.116;5.286;2024-01-10T01:06:24;2.73;;;2.50;;
13816;SDS011;6979;52.116;5.286;2024-01-10T01:08:51;2.83;;;2.47;;
13816;SDS011;6979;52.116;5.286;2024-01-10T01:11:18;3.43;;;2.83;;
13816;SDS011;6979;52.116;5.286;2024-01-10T01:13:44;3.20;;;2.90;;
13816;SDS011;6979;52.116;5.286;2024-01-10T01:16:11;2.87;;;2.40;;
13816;SDS011;6979;52.116;5.286;2024-01-10T01:18:38;2.87;;;2.40;;
13816;SDS011;6979;52.116;5.286;2024-01-10T01:21:10;2.90;;;2.70;;
13816;SDS011;6979;52.116;5.286;2024-01-10T01:23:41;3.00;;;2.80;;
13816;SDS011;6979;52.116;5.286;2024-01-10T01:26:09;3.17;;;2.77;;
13816;SDS011;6979;52.116;5.286;2024-01-10T01:28:36;4.10;;;2.80;;
13816;SDS011;6979;52.116;5.286;2024-01-10T01:31:03;3.30;;;3.00;;
13816;SDS011;6979;52.116;5.286;2024-01-10T01:33:30;2.90;;;2.70;;
13816;SDS011;6979;52.116;5.286;2024-01-10T01:35:56;3.50;;;3.17;;
13816;SDS011;6979;52.116;5.286;2024-01-10T01:38:24;4.03;;;3.10;;
13816;SDS011;6979;52.116;5.286;2024-01-10T01:40:52;3.27;;;2.97;;
13816;SDS011;6979;52.116;5.286;2024-01-10T01:43:19;2.50;;;2.30;;
13816;SDS011;6979;52.116;5.286;2024-01-10T01:45:48;3.70;;;2.80;;
13816;SDS011;6979;52.116;5.286;2024-01-10T01:48:19;3.20;;;2.90;;
13816;SDS011;6979;52.116;5.286;2024-01-10T01:50:47;3.90;;;3.20;;
13816;SDS011;6979;52.116;5.286;2024-01-10T01:53:18;3.10;;;2.73;;
13816;SDS011;6979;52.116;5.286;2024-01-10T01:55:45;3.50;;;2.93;;
13816;SDS011;6979;52.116;5.286;2024-01-10T01:58:14;3.53;;;2.70;;
13816;SDS011;6979;52.116;5.286;2024-01-10T02:00:43;3.47;;;2.97;;
13816;SDS011;6979;52.116;5.286;2024-01-10T02:03:11;2.97;;;2.73;;
13816;SDS011;6979;52.116;5.286;2024-01-10T02:05:38;3.17;;;2.83;;
13816;SDS011;6979;52.116;5.286;2024-01-10T02:08:05;3.63;;;3.30;;
13816;SDS011;6979;52.116;5.286;2024-01-10T02:10:32;3.17;;;2.87;;
13816;SDS011;6979;52.116;5.286;2024-01-10T02:12:59;3.73;;;3.43;;
13816;SDS011;6979;52.116;5.286;2024-01-10T02:15:30;3.57;;;2.90;;
13816;SDS011;6979;52.116;5.286;2024-01-10T02:17:57;3.20;;;2.90;;
13816;SDS011;6979;52.116;5.286;2024-01-10T02:20:24;3.03;;;2.77;;
13816;SDS011;6979;52.116;5.286;2024-01-10T02:22:53;4.70;;;3.27;;
13816;SDS011;6979;52.116;5.286;2024-01-10T02:25:22;3.10;;;2.90;;
13816;SDS011;6979;52.116;5.286;2024-01-10T02:27:49;3.80;;;2.67;;
13816;SDS011;6979;52.116;5.286;2024-01-10T02:30:16;3.73;;;3.20;;
13816;SDS011;6979;52.116;5.286;2024-01-10T02:32:42;3.27;;;2.73;;
13816;SDS011;6979;52.116;5.286;2024-01-10T02:35:09;3.17;;;2.87;;
13816;SDS011;6979;52.116;5.286;2024-01-10T02:37:36;3.40;;;2.80;;
13816;SDS011;6979;52.116;5.286;2024-01-10T02:40:03;3.40;;;3.10;;
13816;SDS011;6979;52.116;5.286;2024-01-10T02:42:35;4.60;;;2.80;;
13816;SDS011;6979;52.116;5.286;2024-01-10T02:45:02;3.43;;;3.13;;
13816;SDS011;6979;52.116;5.286;2024-01-10T02:47:29;3.90;;;3.47;;
13816;SDS011;6979;52.116;5.286;2024-01-10T02:49:56;3.47;;;2.90;;
13816;SDS011;6979;52.116;5.286;2024-01-10T02:52:23;4.97;;;3.53;;
13816;SDS011;6979;52.116;5.286;2024-01-10T02:54:50;3.20;;;2.90;;
13816;SDS011;6979;52.116;5.286;2024-01-10T02:57:17;4.10;;;3.37;;
13816;SDS011;6979;52.116;5.286;2024-01-10T02:59:45;3.33;;;3.03;;
13816;SDS011;6979;52.116;5.286;2024-01-10T03:02:12;3.50;;;3.10;;
13816;SDS011;6979;52.116;5.286;2024-01-10T03:04:39;3.50;;;3.20;;
13816;SDS011;6979;52.116;5.286;2024-01-10T03:07:09;3.37;;;3.00;;
13816;SDS011;6979;52.116;5.286;2024-01-10T03:09:36;3.37;;;3.07;;
13816;SDS011;6979;52.116;5.286;2024-01-10T03:12:03;3.70;;;3.37;;
13816;SDS011;6979;52.116;5.286;2024-01-10T03:14:31;3.47;;;3.17;;
13816;SDS011;6979;52.116;5.286;2024-01-10T03:17:00;3.77;;;3.07;;
13816;SDS011;6979;52.116;5.286;2024-01-10T03:19:27;3.50;;;3.20;;
13816;SDS011;6979;52.116;5.286;2024-01-10T03:21:56;3.47;;;3.17;;
13816;SDS011;6979;52.116;5.286;2024-01-10T03:24:22;3.40;;;3.07;;
13816;SDS011;6979;52.116;5.286;2024-01-10T03:26:53;3.80;;;3.47;;
13816;SDS011;6979;52.116;5.286;2024-01-10T03:29:20;4.23;;;3.17;;
13816;SDS011;6979;52.116;5.286;2024-01-10T03:31:47;4.63;;;3.40;;
13816;SDS011;6979;52.116;5.286;2024-01-10T03:34:15;3.43;;;3.13;;
13816;SDS011;6979;52.116;5.286;2024-01-10T03:36:43;4.33;;;3.40;;
13816;SDS011;6979;52.116;5.286;2024-01-10T03:39:10;3.77;;;3.30;;
13816;SDS011;6979;52.116;5.286;2024-01-10T03:41:37;3.93;;;3.30;;
13816;SDS011;6979;52.116;5.286;2024-01-10T03:44:04;3.93;;;3.23;;
13816;SDS011;6979;52.116;5.286;2024-01-10T03:46:30;3.27;;;2.90;;
13816;SDS011;6979;52.116;5.286;2024-01-10T03:48:57;4.53;;;3.40;;
13816;SDS011;6979;52.116;5.286;2024-01-10T03:51:26;4.27;;;3.13;;
13816;SDS011;6979;52.116;5.286;2024-01-10T03:53:54;4.07;;;3.67;;
13816;SDS011;6979;52.116;5.286;2024-01-10T03:56:23;3.80;;;3.37;;
13816;SDS011;6979;52.116;5.286;2024-01-10T03:58:51;3.97;;;3.57;;
13816;SDS011;6979;52.116;5.286;2024-01-10T04:01:21;3.93;;;3.53;;
13816;SDS011;6979;52.116;5.286;2024-01-10T04:03:49;5.23;;;3.97;;
13816;SDS011;6979;52.116;5.286;2024-01-10T04:06:15;3.67;;;3.37;;
13816;SDS011;6979;52.116;5.286;2024-01-10T04:08:45;4.07;;;3.00;;
13816;SDS011;6979;52.116;5.286;2024-01-10T04:11:12;3.63;;;3.33;;
13816;SDS011;6979;52.116;5.286;2024-01-10T04:13:39;3.60;;;3.30;;
13816;SDS011;6979;52.116;5.286;2024-01-10T04:16:06;4.77;;;3.73;;
13816;SDS011;6979;52.116;5.286;2024-01-10T04:18:39;3.43;;;3.13;;
13816;SDS011;6979;52.116;5.286;2024-01-10T04:21:05;4.57;;;3.83;;
13816;SDS011;6979;52.116;5.286;2024-01-10T04:23:36;3.93;;;3.53;;
13816;SDS011;6979;52.116;5.286;2024-01-10T04:26:04;4.03;;;3.47;;
13816;SDS011;6979;52.116;5.286;2024-01-10T04:28:31;3.97;;;3.60;;
13816;SDS011;6979;52.116;5.286;2024-01-10T04:30:58;4.50;;;3.60;;
13816;SDS011;6979;52.116;5.286;2024-01-10T04:33:25;3.97;;;3.50;;
13816;SDS011;6979;52.116;5.286;2024-01-10T04:35:52;4.07;;;3.40;;
13816;SDS011;6979;52.116;5.286;2024-01-10T04:38:19;3.97;;;3.57;;
13816;SDS011;6979;52.116;5.286;2024-01-10T04:40:45;5.10;;;3.43;;
13816;SDS011;6979;52.116;5.286;2024-01-10T04:43:14;3.50;;;3.20;;
13816;SDS011;6979;52.116;5.286;2024-01-10T04:45:40;4.07;;;3.50;;
13816;SDS011;6979;52.116;5.286;2024-01-10T04:48:08;3.57;;;3.27;;
13816;SDS011;6979;52.116;5.286;2024-01-10T04:50:35;3.20;;;2.90;;
13816;SDS011;6979;52.116;5.286;2024-01-10T04:53:02;4.00;;;3.60;;
13816;SDS011;6979;52.116;5.286;2024-01-10T04:55:29;3.63;;;3.20;;
13816;SDS011;6979;52.116;5.286;2024-01-10T04:57:55;3.07;;;2.87;;
13816;SDS011;6979;52.116;5.286;2024-01-10T05:00:24;4.13;;;3.60;;
13816;SDS011;6979;52.116;5.286;2024-01-10T05:02:57;3.90;;;3.53;;
13816;SDS011;6979;52.116;5.286;2024-01-10T05:05:23;3.77;;;3.20;;
13816;SDS011;6979;52.116;5.286;2024-01-10T05:07:50;3.93;;;3.53;;
13816;SDS011;6979;52.116;5.286;2024-01-10T05:10:20;4.33;;;3.60;;
13816;SDS011;6979;52.116;5.286;2024-01-10T05:12:47;4.13;;;3.77;;
13816;SDS011;6979;52.116;5.286;2024-01-10T05:15:14;4.07;;;3.63;;
13816;SDS011;6979;52.116;5.286;2024-01-10T05:17:42;4.10;;;3.70;;
13816;SDS011;6979;52.116;5.286;2024-01-10T05:20:09;4.07;;;3.73;;
13816;SDS011;6979;52.116;5.286;2024-01-10T05:22:36;4.00;;;3.60;;
13816;SDS011;6979;52.116;5.286;2024-01-10T05:25:03;3.93;;;3.50;;
13816;SDS011;6979;52.116;5.286;2024-01-10T05:27:31;4.07;;;3.57;;
13816;SDS011;6979;52.116;5.286;2024-01-10T05:29:58;4.10;;;3.70;;
13816;SDS011;6979;52.116;5.286;2024-01-10T05:32:28;4.53;;;3.50;;
13816;SDS011;6979;52.116;5.286;2024-01-10T05:34:57;3.73;;;3.20;;
13816;SDS011;6979;52.116;5.286;2024-01-10T05:37:24;4.20;;;3.80;;
13816;SDS011;6979;52.116;5.286;2024-01-10T05:39:51;4.77;;;4.00;;
13816;SDS011;6979;52.116;5.286;2024-01-10T05:42:18;4.47;;;3.83;;
13816;SDS011;6979;52.116;5.286;2024-01-10T05:44:45;3.70;;;3.37;;
13816;SDS011;6979;52.116;5.286;2024-01-10T05:47:12;4.07;;;3.47;;
13816;SDS011;6979;52.116;5.286;2024-01-10T05:49:39;4.33;;;3.93;;
13816;SDS011;6979;52.116;5.286;2024-01-10T05:52:09;3.83;;;3.50;;
13816;SDS011;6979;52.116;5.286;2024-01-10T05:54:37;5.43;;;4.00;;
13816;SDS011;6979;52.116;5.286;2024-01-10T05:57:04;5.50;;;4.13;;
13816;SDS011;6979;52.116;5.286;2024-01-10T05:59:31;4.10;;;3.70;;
13816;SDS011;6979;52.116;5.286;2024-01-10T06:01:58;6.97;;;4.23;;
13816;SDS011;6979;52.116;5.286;2024-01-10T06:04:25;3.67;;;3.30;;
13816;SDS011;6979;52.116;5.286;2024-01-10T06:06:53;4.07;;;3.37;;
13816;SDS011;6979;52.116;5.286;2024-01-10T06:09:21;4.73;;;4.33;;
13816;SDS011;6979;52.116;5.286;2024-01-10T06:11:48;4.87;;;3.93;;
13816;SDS011;6979;52.116;5.286;2024-01-10T06:14:15;4.13;;;3.77;;
13816;SDS011;6979;52.116;5.286;2024-01-10T06:16:41;4.20;;;3.80;;
13816;SDS011;6979;52.116;5.286;2024-01-10T06:19:09;4.53;;;4.13;;
13816;SDS011;6979;52.116;5.286;2024-01-10T06:21:36;3.97;;;3.67;;
13816;SDS011;6979;52.116;5.286;2024-01-10T06:24:03;5.00;;;4.50;;
13816;SDS011;6979;52.116;5.286;2024-01-10T06:26:32;4.17;;;3.77;;
13816;SDS011;6979;52.116;5.286;2024-01-10T06:28:58;4.67;;;3.97;;
13816;SDS011;6979;52.116;5.286;2024-01-10T06:31:25;5.20;;;4.23;;
13816;SDS011;6979;52.116;5.286;2024-01-10T06:33:52;4.20;;;3.83;;
13816;SDS011;6979;52.116;5.286;2024-01-10T06:36:20;3.70;;;3.40;;
13816;SDS011;6979;52.116;5.286;2024-01-10T06:38:47;5.37;;;4.23;;
13816;SDS011;6979;52.116;5.286;2024-01-10T06:41:14;4.80;;;4.40;;
13816;SDS011;6979;52.116;5.286;2024-01-10T06:43:42;5.07;;;4.37;;
13816;SDS011;6979;52.116;5.286;2024-01-10T06:46:09;6.57;;;4.77;;
13816;SDS011;6979;52.116;5.286;2024-01-10T06:48:37;4.40;;;4.00;;
13816;SDS011;6979;52.116;5.286;2024-01-10T06:51:09;4.70;;;3.90;;
13816;SDS011;6979;52.116;5.286;2024-01-10T06:53:37;4.70;;;4.30;;
13816;SDS011;6979;52.116;5.286;2024-01-10T06:56:07;4.90;;;4.40;;
13816;SDS011;6979;52.116;5.286;2024-01-10T06:58:39;5.43;;;4.77;;
13816;SDS011;6979;52.116;5.286;2024-01-10T07:01:13;4.87;;;3.97;;
13816;SDS011;6979;52.116;5.286;2024-01-10T07:03:41;4.80;;;4.30;;
13816;SDS011;6979;52.116;5.286;2024-01-10T07:06:13;5.43;;;4.40;;
13816;SDS011;6979;52.116;5.286;2024-01-10T07:08:40;5.53;;;4.70;;
13816;SDS011;6979;52.116;5.286;2024-01-10T07:11:12;4.20;;;3.80;;
13816;SDS011;6979;52.116;5.286;2024-01-10T07:13:39;5.23;;;4.20;;
13816;SDS011;6979;52.116;5.286;2024-01-10T07:16:07;5.07;;;4.00;;
13816;SDS011;6979;52.116;5.286;2024-01-10T07:18:35;4.83;;;4.40;;
13816;SDS011;6979;52.116;5.286;2024-01-10T07:21:02;4.53;;;4.03;;
13816;SDS011;6979;52.116;5.286;2024-01-10T07:23:30;5.27;;;4.60;;
13816;SDS011;6979;52.116;5.286;2024-01-10T07:25:59;5.40;;;4.90;;
13816;SDS011;6979;52.116;5.286;2024-01-10T07:28:27;4.73;;;4.20;;
13816;SDS011;6979;52.116;5.286;2024-01-10T07:30:55;5.63;;;4.60;;
13816;SDS011;6979;52.116;5.286;2024-01-10T07:33:22;4.50;;;4.10;;
13816;SDS011;6979;52.116;5.286;2024-01-10T07:35:52;5.23;;;4.53;;
13816;SDS011;6979;52.116;5.286;2024-01-10T07:38:20;4.70;;;4.30;;
13816;SDS011;6979;52.116;5.286;2024-01-10T07:40:47;5.60;;;4.63;;
13816;SDS011;6979;52.116;5.286;2024-01-10T07:43:14;5.40;;;4.13;;
13816;SDS011;6979;52.116;5.286;2024-01-10T07:45:40;4.83;;;4.30;;
13816;SDS011;6979;52.116;5.286;2024-01-10T07:48:07;5.43;;;4.53;;
13816;SDS011;6979;52.116;5.286;2024-01-10T07:50:38;7.40;;;4.40;;
13816;SDS011;6979;52.116;5.286;2024-01-10T07:53:06;5.37;;;4.67;;
13816;SDS011;6979;52.116;5.286;2024-01-10T07:55:33;5.50;;;4.30;;
13816;SDS011;6979;52.116;5.286;2024-01-10T07:57:59;4.63;;;4.23;;
13816;SDS011;6979;52.116;5.286;2024-01-10T08:00:26;5.53;;;4.90;;
13816;SDS011;6979;52.116;5.286;2024-01-10T08:02:55;4.00;;;3.60;;
13816;SDS011;6979;52.116;5.286;2024-01-10T08:05:23;5.17;;;4.67;;
13816;SDS011;6979;52.116;5.286;2024-01-10T08:07:50;4.97;;;4.40;;
13816;SDS011;6979;52.116;5.286;2024-01-10T08:10:18;5.10;;;4.23;;
13816;SDS011;6979;52.116;5.286;2024-01-10T08:12:48;5.50;;;4.67;;
13816;SDS011;6979;52.116;5.286;2024-01-10T08:15:18;6.17;;;4.87;;
13816;SDS011;6979;52.116;5.286;2024-01-10T08:17:45;4.50;;;4.10;;
13816;SDS011;6979;52.116;5.286;2024-01-10T08:20:12;4.57;;;4.13;;
13816;SDS011;6979;52.116;5.286;2024-01-10T08:22:44;5.87;;;4.70;;
13816;SDS011;6979;52.116;5.286;2024-01-10T08:25:11;5.80;;;5.00;;
13816;SDS011;6979;52.116;5.286;2024-01-10T08:27:43;6.40;;;4.63;;
13816;SDS011;6979;52.116;5.286;2024-01-10T08:30:10;5.53;;;4.27;;
13816;SDS011;6979;52.116;5.286;2024-01-10T08:32:37;4.27;;;3.77;;
13816;SDS011;6979;52.116;5.286;2024-01-10T08:35:10;5.87;;;4.30;;
13816;SDS011;6979;52.116;5.286;2024-01-10T08:37:38;5.30;;;4.80;;
13816;SDS011;6979;52.116;5.286;2024-01-10T08:40:08;5.10;;;4.60;;
13816;SDS011;6979;52.116;5.286;2024-01-10T08:42:37;4.00;;;3.70;;
13816;SDS011;6979;52.116;5.286;2024-01-10T08:45:08;5.87;;;5.27;;
13816;SDS011;6979;52.116;5.286;2024-01-10T08:47:36;6.70;;;4.53;;
13816;SDS011;6979;52.116;5.286;2024-01-10T08:50:04;6.03;;;5.43;;
13816;SDS011;6979;52.116;5.286;2024-01-10T08:52:34;7.37;;;5.13;;
13816;SDS011;6979;52.116;5.286;2024-01-10T08:55:03;5.90;;;4.70;;
13816;SDS011;6979;52.116;5.286;2024-01-10T08:57:30;5.37;;;4.50;;
13816;SDS011;6979;52.116;5.286;2024-01-10T08:59:58;4.73;;;4.17;;
13816;SDS011;6979;52.116;5.286;2024-01-10T09:02:26;5.67;;;4.63;;
13816;SDS011;6979;52.116;5.286;2024-01-10T09:04:53;6.73;;;4.83;;
13816;SDS011;6979;52.116;5.286;2024-01-10T09:07:20;5.33;;;4.53;;
13816;SDS011;6979;52.116;5.286;2024-01-10T09:09:47;6.63;;;5.00;;
13816;SDS011;6979;52.116;5.286;2024-01-10T09:12:14;5.57;;;4.83;;
13816;SDS011;6979;52.116;5.286;2024-01-10T09:14:40;5.83;;;5.07;;
13816;SDS011;6979;52.116;5.286;2024-01-10T09:17:09;5.73;;;4.67;;
13816;SDS011;6979;52.116;5.286;2024-01-10T09:19:38;5.90;;;4.70;;
13816;SDS011;6979;52.116;5.286;2024-01-10T09:22:04;5.00;;;4.43;;
13816;SDS011;6979;52.116;5.286;2024-01-10T09:24:31;5.37;;;4.87;;
13816;SDS011;6979;52.116;5.286;2024-01-10T09:26:59;6.67;;;5.33;;
13816;SDS011;6979;52.116;5.286;2024-01-10T09:29:26;6.20;;;4.67;;
13816;SDS011;6979;52.116;5.286;2024-01-10T09:31:55;6.43;;;5.20;;
13816;SDS011;6979;52.116;5.286;2024-01-10T09:34:25;5.30;;;4.77;;
13816;SDS011;6979;52.116;5.286;2024-01-10T09:36:53;5.93;;;5.33;;
13816;SDS011;6979;52.116;5.286;2024-01-10T09:39:20;6.00;;;4.93;;
13816;SDS011;6979;52.116;5.286;2024-01-10T09:41:49;6.23;;;5.00;;
13816;SDS011;6979;52.116;5.286;2024-01-10T09:44:16;5.20;;;4.70;;
13816;SDS011;6979;52.116;5.286;2024-01-10T09:46:45;6.43;;;4.77;;
13816;SDS011;6979;52.116;5.286;2024-01-10T09:49:16;5.57;;;4.43;;
13816;SDS011;6979;52.116;5.286;2024-01-10T09:51:43;4.97;;;4.47;;
13816;SDS011;6979;52.116;5.286;2024-01-10T09:54:15;5.37;;;4.87;;
13816;SDS011;6979;52.116;5.286;2024-01-10T09:56:44;6.23;;;4.87;;
13816;SDS011;6979;52.116;5.286;2024-01-10T09:59:11;5.47;;;4.50;;
13816;SDS011;6979;52.116;5.286;2024-01-10T10:01:38;6.03;;;4.67;;
13816;SDS011;6979;52.116;5.286;2024-01-10T10:04:09;5.30;;;4.80;;
13816;SDS011;6979;52.116;5.286;2024-01-10T10:06:42;5.13;;;4.00;;
13816;SDS011;6979;52.116;5.286;2024-01-10T10:09:08;5.27;;;4.23;;
13816;SDS011;6979;52.116;5.286;2024-01-10T10:11:39;5.03;;;4.53;;
13816;SDS011;6979;52.116;5.286;2024-01-10T10:14:13;5.53;;;4.97;;
13816;SDS011;6979;52.116;5.286;2024-01-10T10:16:44;5.30;;;4.80;;
13816;SDS011;6979;52.116;5.286;2024-01-10T10:19:11;5.03;;;4.53;;
13816;SDS011;6979;52.116;5.286;2024-01-10T10:21:38;5.33;;;4.70;;
13816;SDS011;6979;52.116;5.286;2024-01-10T10:24:05;5.40;;;4.80;;
13816;SDS011;6979;52.116;5.286;2024-01-10T10:26:37;5.67;;;5.17;;
13816;SDS011;6979;52.116;5.286;2024-01-10T10:29:05;5.80;;;5.03;;
13816;SDS011;6979;52.116;5.286;2024-01-10T10:31:32;5.30;;;4.83;;
13816;SDS011;6979;52.116;5.286;2024-01-10T10:33:59;5.63;;;5.13;;
13816;SDS011;6979;52.116;5.286;2024-01-10T10:36:29;7.07;;;5.53;;
13816;SDS011;6979;52.116;5.286;2024-01-10T10:38:58;5.73;;;5.13;;
13816;SDS011;6979;52.116;5.286;2024-01-10T10:41:26;5.40;;;5.00;;
13816;SDS011;6979;52.116;5.286;2024-01-10T10:43:55;7.57;;;5.63;;
13816;SDS011;6979;52.116;5.286;2024-01-10T10:46:24;5.63;;;5.13;;
13816;SDS011;6979;52.116;5.286;2024-01-10T10:48:54;5.87;;;5.37;;
13816;SDS011;6979;52.116;5.286;2024-01-10T10:51:27;5.97;;;5.47;;
13816;SDS011;6979;52.116;5.286;2024-01-10T10:53:56;6.30;;;5.70;;
13816;SDS011;6979;52.116;5.286;2024-01-10T10:56:25;6.00;;;5.50;;
13816;SDS011;6979;52.116;5.286;2024-01-10T10:58:56;6.07;;;5.53;;
13816;SDS011;6979;52.116;5.286;2024-01-10T11:01:25;6.77;;;6.13;;
13816;SDS011;6979;52.116;5.286;2024-01-10T11:03:53;5.90;;;5.40;;
13816;SDS011;6979;52.116;5.286;2024-01-10T11:06:22;5.40;;;5.00;;
13816;SDS011;6979;52.116;5.286;2024-01-10T11:08:50;6.23;;;5.63;;
13816;SDS011;6979;52.116;5.286;2024-01-10T11:11:23;6.50;;;5.90;;
13816;SDS011;6979;52.116;5.286;2024-01-10T11:14:05;6.83;;;6.23;;
13816;SDS011;6979;52.116;5.286;2024-01-10T11:17:00;5.80;;;5.30;;
13816;SDS011;6979;52.116;5.286;2024-01-10T11:23:01;6.40;;;5.80;;
13816;SDS011;6979;52.116;5.286;2024-01-10T11:25:40;5.77;;;5.23;;
13816;SDS011;6979;52.116;5.286;2024-01-10T11:28:07;6.37;;;5.80;;
13816;SDS011;6979;52.116;5.286;2024-01-10T11:30:34;6.87;;;6.17;;
13816;SDS011;6979;52.116;5.286;2024-01-10T11:33:20;6.53;;;5.97;;
13816;SDS011;6979;52.116;5.286;2024-01-10T11:36:05;6.17;;;5.67;;
13816;SDS011;6979;52.116;5.286;2024-01-10T11:38:38;6.63;;;5.73;;
13816;SDS011;6979;52.116;5.286;2024-01-10T11:41:10;6.27;;;5.57;;
13816;SDS011;6979;52.116;5.286;2024-01-10T11:43:38;6.93;;;6.23;;
13816;SDS011;6979;52.116;5.286;2024-01-10T11:46:05;6.87;;;6.27;;
13816;SDS011;6979;52.116;5.286;2024-01-10T11:48:36;6.60;;;6.00;;
13816;SDS011;6979;52.116;5.286;2024-01-10T11:51:04;6.73;;;6.13;;
13816;SDS011;6979;52.116;5.286;2024-01-10T11:53:38;6.30;;;5.70;;
13816;SDS011;6979;52.116;5.286;2024-01-10T11:56:10;6.47;;;5.87;;
13816;SDS011;6979;52.116;5.286;2024-01-10T11:58:52;6.67;;;6.07;;
13816;SDS011;6979;52.116;5.286;2024-01-10T12:01:22;6.67;;;6.03;;
13816;SDS011;6979;52.116;5.286;2024-01-10T12:03:52;6.10;;;5.50;;
13816;SDS011;6979;52.116;5.286;2024-01-10T12:06:21;6.30;;;5.77;;
13816;SDS011;6979;52.116;5.286;2024-01-10T12:08:48;6.37;;;5.77;;
13816;SDS011;6979;52.116;5.286;2024-01-10T12:11:15;5.70;;;5.27;;
13816;SDS011;6979;52.116;5.286;2024-01-10T12:13:43;7.00;;;6.30;;
13816;SDS011;6979;52.116;5.286;2024-01-10T12:16:10;7.43;;;6.33;;
13816;SDS011;6979;52.116;5.286;2024-01-10T12:18:41;7.00;;;6.37;;
13816;SDS011;6979;52.116;5.286;2024-01-10T12:21:10;7.00;;;6.40;;
13816;SDS011;6979;52.116;5.286;2024-01-10T12:23:37;6.47;;;5.87;;
13816;SDS011;6979;52.116;5.286;2024-01-10T12:26:06;6.73;;;6.13;;
13816;SDS011;6979;52.116;5.286;2024-01-10T12:28:34;6.60;;;6.03;;
13816;SDS011;6979;52.116;5.286;2024-01-10T12:31:01;6.80;;;6.30;;
13816;SDS011;6979;52.116;5.286;2024-01-10T12:33:30;6.27;;;5.77;;
13816;SDS011;6979;52.116;5.286;2024-01-10T12:36:07;6.37;;;5.87;;
13816;SDS011;6979;52.116;5.286;2024-01-10T12:38:36;7.17;;;6.57;;
13816;SDS011;6979;52.116;5.286;2024-01-10T12:41:04;7.07;;;6.50;;
13816;SDS011;6979;52.116;5.286;2024-01-10T12:43:34;6.40;;;5.90;;
13816;SDS011;6979;52.116;5.286;2024-01-10T12:46:05;7.27;;;6.67;;
13816;SDS011;6979;52.116;5.286;2024-01-10T12:48:32;7.10;;;6.30;;
13816;SDS011;6979;52.116;5.286;2024-01-10T12:51:01;6.60;;;6.10;;
13816;SDS011;6979;52.116;5.286;2024-01-10T12:53:35;7.10;;;6.40;;
13816;SDS011;6979;52.116;5.286;2024-01-10T12:56:03;6.23;;;5.73;;
13816;SDS011;6979;52.116;5.286;2024-01-10T12:58:31;7.33;;;6.73;;
13816;SDS011;6979;52.116;5.286;2024-01-10T13:00:58;7.00;;;6.40;;
13816;SDS011;6979;52.116;5.286;2024-01-10T13:03:25;6.47;;;5.97;;
13816;SDS011;6979;52.116;5.286;2024-01-10T13:05:55;6.50;;;5.90;;
13816;SDS011;6979;52.116;5.286;2024-01-10T13:08:23;6.63;;;6.03;;
13816;SDS011;6979;52.116;5.286;2024-01-10T13:10:51;7.57;;;6.87;;
13816;SDS011;6979;52.116;5.286;2024-01-10T13:13:20;7.27;;;6.57;;
13816;SDS011;6979;52.116;5.286;2024-01-10T13:15:47;6.90;;;6.30;;
13816;SDS011;6979;52.116;5.286;2024-01-10T13:18:15;7.03;;;6.47;;
13816;SDS011;6979;52.116;5.286;2024-01-10T13:20:42;7.07;;;6.43;;
13816;SDS011;6979;52.116;5.286;2024-01-10T13:23:10;6.70;;;6.00;;
13816;SDS011;6979;52.116;5.286;2024-01-10T13:25:37;6.33;;;5.73;;
13816;SDS011;6979;52.116;5.286;2024-01-10T13:28:14;7.33;;;6.63;;
13816;SDS011;6979;52.116;5.286;2024-01-10T13:30:41;7.40;;;6.80;;
13816;SDS011;6979;52.116;5.286;2024-01-10T13:33:09;6.10;;;5.60;;
13816;SDS011;6979;52.116;5.286;2024-01-10T13:35:36;6.53;;;5.93;;
13816;SDS011;6979;52.116;5.286;2024-01-10T13:38:03;6.53;;;5.93;;
13816;SDS011;6979;52.116;5.286;2024-01-10T13:40:33;6.57;;;5.97;;
13816;SDS011;6979;52.116;5.286;2024-01-10T13:42:59;6.27;;;5.67;;
13816;SDS011;6979;52.116;5.286;2024-01-10T13:45:30;6.93;;;6.23;;
13816;SDS011;6979;52.116;5.286;2024-01-10T13:47:57;7.70;;;7.03;;
13816;SDS011;6979;52.116;5.286;2024-01-10T13:50:25;7.00;;;6.30;;
13816;SDS011;6979;52.116;5.286;2024-01-10T13:52:54;6.80;;;6.20;;
13816;SDS011;6979;52.116;5.286;2024-01-10T13:55:21;6.70;;;6.10;;
13816;SDS011;6979;52.116;5.286;2024-01-10T13:57:49;6.83;;;6.23;;
13816;SDS011;6979;52.116;5.286;2024-01-10T14:00:18;7.60;;;6.90;;
13816;SDS011;6979;52.116;5.286;2024-01-10T14:02:47;6.50;;;5.90;;
13816;SDS011;6979;52.116;5.286;2024-01-10T14:05:14;6.67;;;5.47;;
13816;SDS011;6979;52.116;5.286;2024-01-10T14:07:43;6.93;;;6.23;;
13816;SDS011;6979;52.116;5.286;2024-01-10T14:10:11;6.73;;;6.13;;
13816;SDS011;6979;52.116;5.286;2024-01-10T14:12:38;8.30;;;6.53;;
13816;SDS011;6979;52.116;5.286;2024-01-10T14:15:08;7.37;;;6.63;;
13816;SDS011;6979;52.116;5.286;2024-01-10T14:17:35;6.43;;;5.93;;
13816;SDS011;6979;52.116;5.286;2024-01-10T14:20:07;6.37;;;5.77;;
13816;SDS011;6979;52.116;5.286;2024-01-10T14:22:35;6.30;;;5.70;;
13816;SDS011;6979;52.116;5.286;2024-01-10T14:25:03;6.77;;;6.10;;
13816;SDS011;6979;52.116;5.286;2024-01-10T14:27:32;6.47;;;5.87;;
13816;SDS011;6979;52.116;5.286;2024-01-10T14:29:58;6.40;;;5.80;;
13816;SDS011;6979;52.116;5.286;2024-01-10T14:32:28;6.33;;;5.53;;
13816;SDS011;6979;52.116;5.286;2024-01-10T14:34:58;7.10;;;5.47;;
13816;SDS011;6979;52.116;5.286;2024-01-10T14:37:26;7.37;;;6.13;;
13816;SDS011;6979;52.116;5.286;2024-01-10T14:39:53;6.37;;;5.67;;
13816;SDS011;6979;52.116;5.286;2024-01-10T14:42:20;5.90;;;5.30;;
13816;SDS011;6979;52.116;5.286;2024-01-10T14:44:47;5.93;;;5.40;;
13816;SDS011;6979;52.116;5.286;2024-01-10T14:47:14;5.57;;;5.07;;
13816;SDS011;6979;52.116;5.286;2024-01-10T14:49:41;6.03;;;5.50;;
13816;SDS011;6979;52.116;5.286;2024-01-10T14:52:07;7.37;;;5.83;;
13816;SDS011;6979;52.116;5.286;2024-01-10T14:54:36;6.40;;;5.80;;
13816;SDS011;6979;52.116;5.286;2024-01-10T14:57:03;6.83;;;6.23;;
13816;SDS011;6979;52.116;5.286;2024-01-10T14:59:33;5.97;;;5.47;;
13816;SDS011;6979;52.116;5.286;2024-01-10T15:02:02;5.87;;;5.37;;
13816;SDS011;6979;52.116;5.286;2024-01-10T15:04:32;6.33;;;5.63;;
13816;SDS011;6979;52.116;5.286;2024-01-10T15:07:02;6.33;;;5.67;;
13816;SDS011;6979;52.116;5.286;2024-01-10T15:09:32;6.07;;;5.47;;
13816;SDS011;6979;52.116;5.286;2024-01-10T15:12:03;6.23;;;5.63;;